sensor_id;sensor_type;location;lat;lon;timestamp;P1;durP1;ratioP1;P2;durP2;ratioP2
54005;SDS011;39919;38.160;-122.260;2023-08-21T00:01:49;7.55;;;6.22;;
54005;SDS011;39919;38.160;-122.260;2023-08-21T00:04:18;6.28;;;5.55;;
54005;SDS011;39919;38.160;-122.260;2023-08-21T00:06:50;7.13;;;6.18;;
54005;SDS011;39919;38.160;-122.260;2023-08-21T00:09:19;7.85;;;6.20;;
54005;SDS011;39919;38.160;-122.260;2023-08-21T00:11:48;8.40;;;5.80;;
54005;SDS011;39919;38.160;-122.260;2023-08-21T00:14:21;9.57;;;5.85;;
54005;SDS011;39919;38.160;-122.260;2023-08-21T00:16:50;7.63;;;5.13;;
54005;SDS011;39919;38.160;-122.260;2023-08-21T00:19:22;5.40;;;4.55;;
54005;SDS011;39919;38.160;-122.260;2023-08-21T00:22:06;7.93;;;4.88;;
54005;SDS011;39919;38.160;-122.260;2023-08-21T00:24:35;4.63;;;4.13;;
54005;SDS011;39919;38.160;-122.260;2023-08-21T00:27:05;4.20;;;3.63;;
54005;SDS011;39919;38.160;-122.260;2023-08-21T00:29:44;5.28;;;3.45;;
54005;SDS011;39919;38.160;-122.260;2023-08-21T00:32:13;2.90;;;2.70;;
54005;SDS011;39919;38.160;-122.260;2023-08-21T00:34:43;5.93;;;3.35;;
54005;SDS011;39919;38.160;-122.260;2023-08-21T00:37:12;2.83;;;2.63;;
54005;SDS011;39919;38.160;-122.260;2023-08-21T00:39:41;2.80;;;2.60;;
54005;SDS011;39919;38.160;-122.260;2023-08-21T00:42:10;2.85;;;2.65;;
54005;SDS011;39919;38.160;-122.260;2023-08-21T00:44:44;4.07;;;3.20;;
54005;SDS011;39919;38.160;-122.260;2023-08-21T00:47:21;2.38;;;2.28;;
54005;SDS011;39919;38.160;-122.260;2023-08-21T00:49:50;2.35;;;2.15;;
54005;SDS011;39919;38.160;-122.260;2023-08-21T00:52:20;2.63;;;2.13;;
54005;SDS011;39919;38.160;-122.260;2023-08-21T00:54:49;5.55;;;1.58;;
54005;SDS011;39919;38.160;-122.260;2023-08-21T00:57:22;1.30;;;1.23;;
54005;SDS011;39919;38.160;-122.260;2023-08-21T00:59:53;1.42;;;1.33;;
54005;SDS011;39919;38.160;-122.260;2023-08-21T01:02:23;2.40;;;1.60;;
54005;SDS011;39919;38.160;-122.260;2023-08-21T01:04:52;2.60;;;1.70;;
54005;SDS011;39919;38.160;-122.260;2023-08-21T01:07:28;1.80;;;1.70;;
54005;SDS011;39919;38.160;-122.260;2023-08-21T01:09:58;1.67;;;1.55;;
54005;SDS011;39919;38.160;-122.260;2023-08-21T01:13:09;1.75;;;1.20;;
54005;SDS011;39919;38.160;-122.260;2023-08-21T01:16:01;2.03;;;1.75;;
54005;SDS011;39919;38.160;-122.260;2023-08-21T01:18:42;1.63;;;1.38;;
54005;SDS011;39919;38.160;-122.260;2023-08-21T01:21:12;0.80;;;0.60;;
54005;SDS011;39919;38.160;-122.260;2023-08-21T01:23:44;0.88;;;0.88;;
54005;SDS011;39919;38.160;-122.260;2023-08-21T01:26:16;0.65;;;0.63;;
54005;SDS011;39919;38.160;-122.260;2023-08-21T01:28:49;0.45;;;0.40;;
54005;SDS011;39919;38.160;-122.260;2023-08-21T01:31:30;1.30;;;0.70;;
54005;SDS011;39919;38.160;-122.260;2023-08-21T01:34:06;0.88;;;0.55;;
54005;SDS011;39919;38.160;-122.260;2023-08-21T01:36:40;2.22;;;0.73;;
54005;SDS011;39919;38.160;-122.260;2023-08-21T01:39:22;1.35;;;1.25;;
54005;SDS011;39919;38.160;-122.260;2023-08-21T01:41:55;1.30;;;1.20;;
54005;SDS011;39919;38.160;-122.260;2023-08-21T01:44:29;1.92;;;1.83;;
54005;SDS011;39919;38.160;-122.260;2023-08-21T01:46:59;3.90;;;2.40;;
54005;SDS011;39919;38.160;-122.260;2023-08-21T01:49:30;2.97;;;2.58;;
54005;SDS011;39919;38.160;-122.260;2023-08-21T01:52:04;3.25;;;2.53;;
54005;SDS011;39919;38.160;-122.260;2023-08-21T01:54:35;3.78;;;3.45;;
54005;SDS011;39919;38.160;-122.260;2023-08-21T01:57:04;5.88;;;3.10;;
54005;SDS011;39919;38.160;-122.260;2023-08-21T01:59:33;3.05;;;2.85;;
54005;SDS011;39919;38.160;-122.260;2023-08-21T02:02:02;2.55;;;2.35;;
54005;SDS011;39919;38.160;-122.260;2023-08-21T02:04:32;4.05;;;3.65;;
54005;SDS011;39919;38.160;-122.260;2023-08-21T02:07:02;5.55;;;4.60;;
54005;SDS011;39919;38.160;-122.260;2023-08-21T02:09:33;3.63;;;3.33;;
54005;SDS011;39919;38.160;-122.260;2023-08-21T02:12:04;2.83;;;2.63;;
54005;SDS011;39919;38.160;-122.260;2023-08-21T02:14:35;2.35;;;2.17;;
54005;SDS011;39919;38.160;-122.260;2023-08-21T02:17:07;1.77;;;1.67;;
54005;SDS011;39919;38.160;-122.260;2023-08-21T02:19:37;3.22;;;2.90;;
54005;SDS011;39919;38.160;-122.260;2023-08-21T02:22:06;2.55;;;2.35;;
54005;SDS011;39919;38.160;-122.260;2023-08-21T02:24:40;2.20;;;2.10;;
54005;SDS011;39919;38.160;-122.260;2023-08-21T02:27:09;3.30;;;2.90;;
54005;SDS011;39919;38.160;-122.260;2023-08-21T02:29:40;3.92;;;2.92;;
54005;SDS011;39919;38.160;-122.260;2023-08-21T02:32:12;5.90;;;2.67;;
54005;SDS011;39919;38.160;-122.260;2023-08-21T02:34:41;2.88;;;2.60;;
54005;SDS011;39919;38.160;-122.260;2023-08-21T02:37:11;2.15;;;2.03;;
54005;SDS011;39919;38.160;-122.260;2023-08-21T02:39:42;3.72;;;2.45;;
54005;SDS011;39919;38.160;-122.260;2023-08-21T02:42:11;2.83;;;2.55;;
54005;SDS011;39919;38.160;-122.260;2023-08-21T02:44:40;2.47;;;2.28;;
54005;SDS011;39919;38.160;-122.260;2023-08-21T02:47:12;3.20;;;2.40;;
54005;SDS011;39919;38.160;-122.260;2023-08-21T02:49:42;1.77;;;1.67;;
54005;SDS011;39919;38.160;-122.260;2023-08-21T02:52:11;2.40;;;2.20;;
54005;SDS011;39919;38.160;-122.260;2023-08-21T02:54:42;2.97;;;2.42;;
54005;SDS011;39919;38.160;-122.260;2023-08-21T02:57:14;3.30;;;3.00;;
54005;SDS011;39919;38.160;-122.260;2023-08-21T02:59:43;2.80;;;2.40;;
54005;SDS011;39919;38.160;-122.260;2023-08-21T03:02:12;3.15;;;2.80;;
54005;SDS011;39919;38.160;-122.260;2023-08-21T03:04:43;2.70;;;2.50;;
54005;SDS011;39919;38.160;-122.260;2023-08-21T03:07:15;2.63;;;2.45;;
54005;SDS011;39919;38.160;-122.260;2023-08-21T03:09:47;3.95;;;2.45;;
54005;SDS011;39919;38.160;-122.260;2023-08-21T03:12:16;1.67;;;1.58;;
54005;SDS011;39919;38.160;-122.260;2023-08-21T03:14:46;2.65;;;2.42;;
54005;SDS011;39919;38.160;-122.260;2023-08-21T03:17:15;3.47;;;3.17;;
54005;SDS011;39919;38.160;-122.260;2023-08-21T03:19:44;2.85;;;2.65;;
54005;SDS011;39919;38.160;-122.260;2023-08-21T03:22:13;4.25;;;3.10;;
54005;SDS011;39919;38.160;-122.260;2023-08-21T03:27:28;3.33;;;3.03;;
54005;SDS011;39919;38.160;-122.260;2023-08-21T03:29:57;4.38;;;2.90;;
54005;SDS011;39919;38.160;-122.260;2023-08-21T03:32:27;3.75;;;3.45;;
54005;SDS011;39919;38.160;-122.260;2023-08-21T03:34:56;3.20;;;2.90;;
54005;SDS011;39919;38.160;-122.260;2023-08-21T03:37:25;5.53;;;4.18;;
54005;SDS011;39919;38.160;-122.260;2023-08-21T03:39:54;5.28;;;4.00;;
54005;SDS011;39919;38.160;-122.260;2023-08-21T03:42:25;5.72;;;4.22;;
54005;SDS011;39919;38.160;-122.260;2023-08-21T03:44:54;5.68;;;3.80;;
54005;SDS011;39919;38.160;-122.260;2023-08-21T03:47:23;8.45;;;4.22;;
54005;SDS011;39919;38.160;-122.260;2023-08-21T03:49:53;4.18;;;3.80;;
54005;SDS011;39919;38.160;-122.260;2023-08-21T03:52:22;7.63;;;3.50;;
54005;SDS011;39919;38.160;-122.260;2023-08-21T03:54:53;5.10;;;3.25;;
54005;SDS011;39919;38.160;-122.260;2023-08-21T03:57:22;5.95;;;2.88;;
54005;SDS011;39919;38.160;-122.260;2023-08-21T03:59:53;3.60;;;2.72;;
54005;SDS011;39919;38.160;-122.260;2023-08-21T04:02:22;2.83;;;2.60;;
54005;SDS011;39919;38.160;-122.260;2023-08-21T04:04:51;5.97;;;2.70;;
54005;SDS011;39919;38.160;-122.260;2023-08-21T04:07:23;6.32;;;2.75;;
54005;SDS011;39919;38.160;-122.260;2023-08-21T04:09:52;2.97;;;2.67;;
54005;SDS011;39919;38.160;-122.260;2023-08-21T04:12:21;3.13;;;2.55;;
54005;SDS011;39919;38.160;-122.260;2023-08-21T04:14:54;4.10;;;3.53;;
54005;SDS011;39919;38.160;-122.260;2023-08-21T04:17:24;3.03;;;2.53;;
54005;SDS011;39919;38.160;-122.260;2023-08-21T04:19:53;3.72;;;3.17;;
54005;SDS011;39919;38.160;-122.260;2023-08-21T04:22:23;4.03;;;2.85;;
54005;SDS011;39919;38.160;-122.260;2023-08-21T04:24:52;5.18;;;3.47;;
54005;SDS011;39919;38.160;-122.260;2023-08-21T04:27:24;10.77;;;3.00;;
54005;SDS011;39919;38.160;-122.260;2023-08-21T04:29:54;6.55;;;3.22;;
54005;SDS011;39919;38.160;-122.260;2023-08-21T04:32:25;7.72;;;3.47;;
54005;SDS011;39919;38.160;-122.260;2023-08-21T04:34:55;7.20;;;3.75;;
54005;SDS011;39919;38.160;-122.260;2023-08-21T04:37:25;7.22;;;3.40;;
54005;SDS011;39919;38.160;-122.260;2023-08-21T04:39:54;10.45;;;3.40;;
54005;SDS011;39919;38.160;-122.260;2023-08-21T04:42:30;5.63;;;3.00;;
54005;SDS011;39919;38.160;-122.260;2023-08-21T04:45:05;6.15;;;3.40;;
54005;SDS011;39919;38.160;-122.260;2023-08-21T04:47:41;9.02;;;3.65;;
54005;SDS011;39919;38.160;-122.260;2023-08-21T04:50:12;8.00;;;3.80;;
54005;SDS011;39919;38.160;-122.260;2023-08-21T04:52:41;4.85;;;3.20;;
54005;SDS011;39919;38.160;-122.260;2023-08-21T04:55:11;9.40;;;3.78;;
54005;SDS011;39919;38.160;-122.260;2023-08-21T04:57:40;8.43;;;4.28;;
54005;SDS011;39919;38.160;-122.260;2023-08-21T05:00:11;10.32;;;3.97;;
54005;SDS011;39919;38.160;-122.260;2023-08-21T05:02:44;8.38;;;3.55;;
54005;SDS011;39919;38.160;-122.260;2023-08-21T05:05:13;6.75;;;2.83;;
54005;SDS011;39919;38.160;-122.260;2023-08-21T05:07:43;9.65;;;3.70;;
54005;SDS011;39919;38.160;-122.260;2023-08-21T05:10:12;5.32;;;3.58;;
54005;SDS011;39919;38.160;-122.260;2023-08-21T05:12:41;7.35;;;3.58;;
54005;SDS011;39919;38.160;-122.260;2023-08-21T05:15:12;7.57;;;3.60;;
54005;SDS011;39919;38.160;-122.260;2023-08-21T05:17:42;4.68;;;3.17;;
54005;SDS011;39919;38.160;-122.260;2023-08-21T05:20:11;7.72;;;3.67;;
54005;SDS011;39919;38.160;-122.260;2023-08-21T05:22:41;6.00;;;3.03;;
54005;SDS011;39919;38.160;-122.260;2023-08-21T05:25:10;4.85;;;3.13;;
54005;SDS011;39919;38.160;-122.260;2023-08-21T05:27:39;6.80;;;3.13;;
54005;SDS011;39919;38.160;-122.260;2023-08-21T05:30:09;12.10;;;4.30;;
54005;SDS011;39919;38.160;-122.260;2023-08-21T05:32:41;8.20;;;3.55;;
54005;SDS011;39919;38.160;-122.260;2023-08-21T05:35:10;9.82;;;3.30;;
54005;SDS011;39919;38.160;-122.260;2023-08-21T05:37:39;5.65;;;3.05;;
54005;SDS011;39919;38.160;-122.260;2023-08-21T05:40:08;5.60;;;3.05;;
54005;SDS011;39919;38.160;-122.260;2023-08-21T05:42:38;8.98;;;3.60;;
54005;SDS011;39919;38.160;-122.260;2023-08-21T05:45:07;8.95;;;3.75;;
54005;SDS011;39919;38.160;-122.260;2023-08-21T05:47:38;7.50;;;3.33;;
54005;SDS011;39919;38.160;-122.260;2023-08-21T05:50:08;8.02;;;3.42;;
54005;SDS011;39919;38.160;-122.260;2023-08-21T05:52:37;11.88;;;3.55;;
54005;SDS011;39919;38.160;-122.260;2023-08-21T05:55:06;6.35;;;3.50;;
54005;SDS011;39919;38.160;-122.260;2023-08-21T05:57:36;10.43;;;3.90;;
54005;SDS011;39919;38.160;-122.260;2023-08-21T06:00:06;4.75;;;2.53;;
54005;SDS011;39919;38.160;-122.260;2023-08-21T06:02:35;6.65;;;3.00;;
54005;SDS011;39919;38.160;-122.260;2023-08-21T06:05:07;8.70;;;3.05;;
54005;SDS011;39919;38.160;-122.260;2023-08-21T06:07:37;8.10;;;3.38;;
54005;SDS011;39919;38.160;-122.260;2023-08-21T06:10:07;8.25;;;4.07;;
54005;SDS011;39919;38.160;-122.260;2023-08-21T06:12:38;9.82;;;3.67;;
54005;SDS011;39919;38.160;-122.260;2023-08-21T06:15:08;7.78;;;3.17;;
54005;SDS011;39919;38.160;-122.260;2023-08-21T06:17:40;7.20;;;3.13;;
54005;SDS011;39919;38.160;-122.260;2023-08-21T06:20:11;14.13;;;3.45;;
54005;SDS011;39919;38.160;-122.260;2023-08-21T06:22:47;8.07;;;3.88;;
54005;SDS011;39919;38.160;-122.260;2023-08-21T06:25:16;9.77;;;3.53;;
54005;SDS011;39919;38.160;-122.260;2023-08-21T06:27:45;14.85;;;4.00;;
54005;SDS011;39919;38.160;-122.260;2023-08-21T06:30:27;5.78;;;2.95;;
54005;SDS011;39919;38.160;-122.260;2023-08-21T06:32:58;5.60;;;3.28;;
54005;SDS011;39919;38.160;-122.260;2023-08-21T06:35:30;9.18;;;4.03;;
54005;SDS011;39919;38.160;-122.260;2023-08-21T06:37:59;7.93;;;3.47;;
54005;SDS011;39919;38.160;-122.260;2023-08-21T06:40:28;8.23;;;3.30;;
54005;SDS011;39919;38.160;-122.260;2023-08-21T06:42:59;9.68;;;4.13;;
54005;SDS011;39919;38.160;-122.260;2023-08-21T06:45:31;11.95;;;3.88;;
54005;SDS011;39919;38.160;-122.260;2023-08-21T06:48:02;7.20;;;4.18;;
54005;SDS011;39919;38.160;-122.260;2023-08-21T06:50:32;4.68;;;3.03;;
54005;SDS011;39919;38.160;-122.260;2023-08-21T06:53:01;8.52;;;3.30;;
54005;SDS011;39919;38.160;-122.260;2023-08-21T06:55:30;6.60;;;2.80;;
54005;SDS011;39919;38.160;-122.260;2023-08-21T06:58:00;6.90;;;3.35;;
54005;SDS011;39919;38.160;-122.260;2023-08-21T07:00:29;7.88;;;3.95;;
54005;SDS011;39919;38.160;-122.260;2023-08-21T07:02:58;9.75;;;3.38;;
54005;SDS011;39919;38.160;-122.260;2023-08-21T07:05:30;5.28;;;2.85;;
54005;SDS011;39919;38.160;-122.260;2023-08-21T07:07:59;4.70;;;2.85;;
54005;SDS011;39919;38.160;-122.260;2023-08-21T07:10:29;6.50;;;2.97;;
54005;SDS011;39919;38.160;-122.260;2023-08-21T07:13:00;7.57;;;3.20;;
54005;SDS011;39919;38.160;-122.260;2023-08-21T07:15:30;8.43;;;3.75;;
54005;SDS011;39919;38.160;-122.260;2023-08-21T07:17:59;5.85;;;2.88;;
54005;SDS011;39919;38.160;-122.260;2023-08-21T07:20:30;4.90;;;2.78;;
54005;SDS011;39919;38.160;-122.260;2023-08-21T07:22:59;7.10;;;3.03;;
54005;SDS011;39919;38.160;-122.260;2023-08-21T07:25:28;5.97;;;3.50;;
54005;SDS011;39919;38.160;-122.260;2023-08-21T07:27:57;4.03;;;2.55;;
54005;SDS011;39919;38.160;-122.260;2023-08-21T07:30:27;2.35;;;1.95;;
54005;SDS011;39919;38.160;-122.260;2023-08-21T07:32:56;3.05;;;1.85;;
54005;SDS011;39919;38.160;-122.260;2023-08-21T07:35:25;2.92;;;1.77;;
54005;SDS011;39919;38.160;-122.260;2023-08-21T07:37:56;2.95;;;1.20;;
54005;SDS011;39919;38.160;-122.260;2023-08-21T07:40:25;2.03;;;1.13;;
54005;SDS011;39919;38.160;-122.260;2023-08-21T07:42:54;4.28;;;2.00;;
54005;SDS011;39919;38.160;-122.260;2023-08-21T07:45:24;5.00;;;2.50;;
54005;SDS011;39919;38.160;-122.260;2023-08-21T07:47:53;4.22;;;2.75;;
54005;SDS011;39919;38.160;-122.260;2023-08-21T07:50:22;3.70;;;2.08;;
54005;SDS011;39919;38.160;-122.260;2023-08-21T07:52:51;2.25;;;1.63;;
54005;SDS011;39919;38.160;-122.260;2023-08-21T07:55:22;1.50;;;1.25;;
54005;SDS011;39919;38.160;-122.260;2023-08-21T07:57:51;2.60;;;1.30;;
54005;SDS011;39919;38.160;-122.260;2023-08-21T08:00:20;5.78;;;1.90;;
54005;SDS011;39919;38.160;-122.260;2023-08-21T08:02:50;6.38;;;3.10;;
54005;SDS011;39919;38.160;-122.260;2023-08-21T08:05:19;4.47;;;2.28;;
54005;SDS011;39919;38.160;-122.260;2023-08-21T08:07:48;2.75;;;2.35;;
54005;SDS011;39919;38.160;-122.260;2023-08-21T08:10:17;4.38;;;2.90;;
54005;SDS011;39919;38.160;-122.260;2023-08-21T08:12:48;7.72;;;3.47;;
54005;SDS011;39919;38.160;-122.260;2023-08-21T08:15:17;3.78;;;1.63;;
54005;SDS011;39919;38.160;-122.260;2023-08-21T08:17:46;1.35;;;1.25;;
54005;SDS011;39919;38.160;-122.260;2023-08-21T08:20:18;2.47;;;1.27;;
54005;SDS011;39919;38.160;-122.260;2023-08-21T08:22:47;4.75;;;1.80;;
54005;SDS011;39919;38.160;-122.260;2023-08-21T08:25:18;3.47;;;1.63;;
54005;SDS011;39919;38.160;-122.260;2023-08-21T08:27:49;4.07;;;2.08;;
54005;SDS011;39919;38.160;-122.260;2023-08-21T08:30:19;3.50;;;1.75;;
54005;SDS011;39919;38.160;-122.260;2023-08-21T08:32:49;4.38;;;2.10;;
54005;SDS011;39919;38.160;-122.260;2023-08-21T08:35:19;6.47;;;2.03;;
54005;SDS011;39919;38.160;-122.260;2023-08-21T08:37:48;3.67;;;1.80;;
54005;SDS011;39919;38.160;-122.260;2023-08-21T08:40:17;5.00;;;1.98;;
54005;SDS011;39919;38.160;-122.260;2023-08-21T08:42:46;5.00;;;2.58;;
54005;SDS011;39919;38.160;-122.260;2023-08-21T08:45:17;4.25;;;2.25;;
54005;SDS011;39919;38.160;-122.260;2023-08-21T08:47:56;7.22;;;3.03;;
54005;SDS011;39919;38.160;-122.260;2023-08-21T08:50:28;7.18;;;2.42;;
54005;SDS011;39919;38.160;-122.260;2023-08-21T08:53:01;5.75;;;2.55;;
54005;SDS011;39919;38.160;-122.260;2023-08-21T08:55:30;8.88;;;2.10;;
54005;SDS011;39919;38.160;-122.260;2023-08-21T08:58:01;6.05;;;2.17;;
54005;SDS011;39919;38.160;-122.260;2023-08-21T09:00:31;2.92;;;1.63;;
54005;SDS011;39919;38.160;-122.260;2023-08-21T09:03:03;4.85;;;1.88;;
54005;SDS011;39919;38.160;-122.260;2023-08-21T09:05:33;5.13;;;1.92;;
54005;SDS011;39919;38.160;-122.260;2023-08-21T09:08:03;8.00;;;2.38;;
54005;SDS011;39919;38.160;-122.260;2023-08-21T09:10:37;10.70;;;3.08;;
54005;SDS011;39919;38.160;-122.260;2023-08-21T09:13:15;11.55;;;3.80;;
54005;SDS011;39919;38.160;-122.260;2023-08-21T09:15:45;8.02;;;2.83;;
54005;SDS011;39919;38.160;-122.260;2023-08-21T09:18:15;8.45;;;2.67;;
54005;SDS011;39919;38.160;-122.260;2023-08-21T09:20:44;8.30;;;2.75;;
54005;SDS011;39919;38.160;-122.260;2023-08-21T09:23:14;8.43;;;2.85;;
54005;SDS011;39919;38.160;-122.260;2023-08-21T09:25:44;8.18;;;2.60;;
54005;SDS011;39919;38.160;-122.260;2023-08-21T09:28:22;13.35;;;3.17;;
54005;SDS011;39919;38.160;-122.260;2023-08-21T09:30:51;14.32;;;3.55;;
54005;SDS011;39919;38.160;-122.260;2023-08-21T09:33:24;11.95;;;3.25;;
54005;SDS011;39919;38.160;-122.260;2023-08-21T09:35:53;8.80;;;3.42;;
54005;SDS011;39919;38.160;-122.260;2023-08-21T09:38:25;7.03;;;2.70;;
54005;SDS011;39919;38.160;-122.260;2023-08-21T09:40:55;13.50;;;3.20;;
54005;SDS011;39919;38.160;-122.260;2023-08-21T09:43:29;11.38;;;3.40;;
54005;SDS011;39919;38.160;-122.260;2023-08-21T09:45:59;9.52;;;2.95;;
54005;SDS011;39919;38.160;-122.260;2023-08-21T09:48:30;10.82;;;3.45;;
54005;SDS011;39919;38.160;-122.260;2023-08-21T09:51:00;6.18;;;2.70;;
54005;SDS011;39919;38.160;-122.260;2023-08-21T09:53:33;12.43;;;2.90;;
54005;SDS011;39919;38.160;-122.260;2023-08-21T09:56:02;10.90;;;3.28;;
54005;SDS011;39919;38.160;-122.260;2023-08-21T09:58:34;10.45;;;2.85;;
54005;SDS011;39919;38.160;-122.260;2023-08-21T10:01:05;11.32;;;3.08;;
54005;SDS011;39919;38.160;-122.260;2023-08-21T10:03:39;7.35;;;2.42;;
54005;SDS011;39919;38.160;-122.260;2023-08-21T10:06:14;10.95;;;3.13;;
54005;SDS011;39919;38.160;-122.260;2023-08-21T10:08:45;14.30;;;3.67;;
54005;SDS011;39919;38.160;-122.260;2023-08-21T10:11:16;7.97;;;2.97;;
54005;SDS011;39919;38.160;-122.260;2023-08-21T10:13:50;6.63;;;1.88;;
54005;SDS011;39919;38.160;-122.260;2023-08-21T10:16:20;5.72;;;2.10;;
54005;SDS011;39919;38.160;-122.260;2023-08-21T10:18:50;6.35;;;1.67;;
54005;SDS011;39919;38.160;-122.260;2023-08-21T10:21:20;5.32;;;2.28;;
54005;SDS011;39919;38.160;-122.260;2023-08-21T10:23:51;2.95;;;1.85;;
54005;SDS011;39919;38.160;-122.260;2023-08-21T10:26:22;3.97;;;2.17;;
54005;SDS011;39919;38.160;-122.260;2023-08-21T10:28:58;6.68;;;1.75;;
54005;SDS011;39919;38.160;-122.260;2023-08-21T10:31:33;2.67;;;1.25;;
54005;SDS011;39919;38.160;-122.260;2023-08-21T10:34:04;6.72;;;2.42;;
54005;SDS011;39919;38.160;-122.260;2023-08-21T10:36:41;8.35;;;2.53;;
54005;SDS011;39919;38.160;-122.260;2023-08-21T10:39:43;4.68;;;1.45;;
54005;SDS011;39919;38.160;-122.260;2023-08-21T10:42:38;6.10;;;2.20;;
54005;SDS011;39919;38.160;-122.260;2023-08-21T10:45:13;4.00;;;1.83;;
54005;SDS011;39919;38.160;-122.260;2023-08-21T10:47:45;2.20;;;1.20;;
54005;SDS011;39919;38.160;-122.260;2023-08-21T10:50:16;5.47;;;2.65;;
54005;SDS011;39919;38.160;-122.260;2023-08-21T10:52:45;13.35;;;2.95;;
54005;SDS011;39919;38.160;-122.260;2023-08-21T10:55:15;8.93;;;2.53;;
54005;SDS011;39919;38.160;-122.260;2023-08-21T10:57:46;10.65;;;3.20;;
54005;SDS011;39919;38.160;-122.260;2023-08-21T11:00:21;6.40;;;2.50;;
54005;SDS011;39919;38.160;-122.260;2023-08-21T11:02:50;12.00;;;3.08;;
54005;SDS011;39919;38.160;-122.260;2023-08-21T11:05:24;8.52;;;2.72;;
54005;SDS011;39919;38.160;-122.260;2023-08-21T11:07:53;11.23;;;3.53;;
54005;SDS011;39919;38.160;-122.260;2023-08-21T11:10:22;15.30;;;4.07;;
54005;SDS011;39919;38.160;-122.260;2023-08-21T11:12:54;9.93;;;3.05;;
54005;SDS011;39919;38.160;-122.260;2023-08-21T11:15:27;12.38;;;3.35;;
54005;SDS011;39919;38.160;-122.260;2023-08-21T11:17:57;11.15;;;4.25;;
54005;SDS011;39919;38.160;-122.260;2023-08-21T11:20:28;10.05;;;3.88;;
54005;SDS011;39919;38.160;-122.260;2023-08-21T11:22:58;13.38;;;3.63;;
54005;SDS011;39919;38.160;-122.260;2023-08-21T11:25:28;17.23;;;4.00;;
54005;SDS011;39919;38.160;-122.260;2023-08-21T11:27:57;11.23;;;3.33;;
54005;SDS011;39919;38.160;-122.260;2023-08-21T11:30:30;15.50;;;4.05;;
54005;SDS011;39919;38.160;-122.260;2023-08-21T11:33:06;17.83;;;4.38;;
54005;SDS011;39919;38.160;-122.260;2023-08-21T11:35:36;14.02;;;3.70;;
54005;SDS011;39919;38.160;-122.260;2023-08-21T11:38:12;15.80;;;4.18;;
54005;SDS011;39919;38.160;-122.260;2023-08-21T11:40:50;12.07;;;3.78;;
54005;SDS011;39919;38.160;-122.260;2023-08-21T11:43:21;14.37;;;4.67;;
54005;SDS011;39919;38.160;-122.260;2023-08-21T11:45:52;14.93;;;3.95;;
54005;SDS011;39919;38.160;-122.260;2023-08-21T11:48:22;18.15;;;3.67;;
54005;SDS011;39919;38.160;-122.260;2023-08-21T11:50:52;16.55;;;4.80;;
54005;SDS011;39919;38.160;-122.260;2023-08-21T11:53:35;13.40;;;4.47;;
54005;SDS011;39919;38.160;-122.260;2023-08-21T11:56:10;13.18;;;4.40;;
54005;SDS011;39919;38.160;-122.260;2023-08-21T11:58:41;15.98;;;4.47;;
54005;SDS011;39919;38.160;-122.260;2023-08-21T12:01:12;15.30;;;4.43;;
54005;SDS011;39919;38.160;-122.260;2023-08-21T12:03:44;24.55;;;5.93;;
54005;SDS011;39919;38.160;-122.260;2023-08-21T12:06:19;20.92;;;5.55;;
54005;SDS011;39919;38.160;-122.260;2023-08-21T12:08:50;22.48;;;5.35;;
54005;SDS011;39919;38.160;-122.260;2023-08-21T12:11:20;15.95;;;4.43;;
54005;SDS011;39919;38.160;-122.260;2023-08-21T12:13:51;25.60;;;5.68;;
54005;SDS011;39919;38.160;-122.260;2023-08-21T12:16:21;23.17;;;5.13;;
54005;SDS011;39919;38.160;-122.260;2023-08-21T12:18:51;24.55;;;6.50;;
54005;SDS011;39919;38.160;-122.260;2023-08-21T12:21:23;19.20;;;5.85;;
54005;SDS011;39919;38.160;-122.260;2023-08-21T12:23:52;27.10;;;6.53;;
54005;SDS011;39919;38.160;-122.260;2023-08-21T12:26:21;19.38;;;5.35;;
54005;SDS011;39919;38.160;-122.260;2023-08-21T12:28:50;25.45;;;6.25;;
54005;SDS011;39919;38.160;-122.260;2023-08-21T12:31:21;25.05;;;6.93;;
54005;SDS011;39919;38.160;-122.260;2023-08-21T12:33:50;28.50;;;6.97;;
54005;SDS011;39919;38.160;-122.260;2023-08-21T12:36:19;27.20;;;6.00;;
54005;SDS011;39919;38.160;-122.260;2023-08-21T12:38:52;25.80;;;7.63;;
54005;SDS011;39919;38.160;-122.260;2023-08-21T12:41:21;29.05;;;7.55;;
54005;SDS011;39919;38.160;-122.260;2023-08-21T12:43:50;30.30;;;8.63;;
54005;SDS011;39919;38.160;-122.260;2023-08-21T12:46:23;36.42;;;8.90;;
54005;SDS011;39919;38.160;-122.260;2023-08-21T12:48:55;42.45;;;10.10;;
54005;SDS011;39919;38.160;-122.260;2023-08-21T12:51:25;33.08;;;8.35;;
54005;SDS011;39919;38.160;-122.260;2023-08-21T12:53:54;30.83;;;7.88;;
54005;SDS011;39919;38.160;-122.260;2023-08-21T12:56:23;30.23;;;8.25;;
54005;SDS011;39919;38.160;-122.260;2023-08-21T12:58:53;29.95;;;8.13;;
54005;SDS011;39919;38.160;-122.260;2023-08-21T13:01:24;29.67;;;8.27;;
54005;SDS011;39919;38.160;-122.260;2023-08-21T13:03:53;27.52;;;7.72;;
54005;SDS011;39919;38.160;-122.260;2023-08-21T13:06:27;40.80;;;9.93;;
54005;SDS011;39919;38.160;-122.260;2023-08-21T13:08:56;30.55;;;9.18;;
54005;SDS011;39919;38.160;-122.260;2023-08-21T13:11:26;38.10;;;9.25;;
54005;SDS011;39919;38.160;-122.260;2023-08-21T13:13:55;36.72;;;9.00;;
54005;SDS011;39919;38.160;-122.260;2023-08-21T13:16:26;33.55;;;9.30;;
54005;SDS011;39919;38.160;-122.260;2023-08-21T13:18:56;35.03;;;9.52;;
54005;SDS011;39919;38.160;-122.260;2023-08-21T13:21:25;38.58;;;10.52;;
54005;SDS011;39919;38.160;-122.260;2023-08-21T13:23:54;39.10;;;9.35;;
54005;SDS011;39919;38.160;-122.260;2023-08-21T13:26:23;34.17;;;9.13;;
54005;SDS011;39919;38.160;-122.260;2023-08-21T13:28:55;30.95;;;9.23;;
54005;SDS011;39919;38.160;-122.260;2023-08-21T13:31:26;42.88;;;10.93;;
54005;SDS011;39919;38.160;-122.260;2023-08-21T13:33:56;37.00;;;10.15;;
54005;SDS011;39919;38.160;-122.260;2023-08-21T13:36:27;36.65;;;10.35;;
54005;SDS011;39919;38.160;-122.260;2023-08-21T13:38:57;38.42;;;10.52;;
54005;SDS011;39919;38.160;-122.260;2023-08-21T13:41:26;40.70;;;10.82;;
54005;SDS011;39919;38.160;-122.260;2023-08-21T13:43:55;43.63;;;11.75;;
54005;SDS011;39919;38.160;-122.260;2023-08-21T13:46:24;27.23;;;8.95;;
54005;SDS011;39919;38.160;-122.260;2023-08-21T13:49:00;34.65;;;9.75;;
54005;SDS011;39919;38.160;-122.260;2023-08-21T13:51:35;37.47;;;11.17;;
54005;SDS011;39919;38.160;-122.260;2023-08-21T13:54:04;39.80;;;10.45;;
54005;SDS011;39919;38.160;-122.260;2023-08-21T13:56:33;35.22;;;9.32;;
54005;SDS011;39919;38.160;-122.260;2023-08-21T13:59:02;37.53;;;9.98;;
54005;SDS011;39919;38.160;-122.260;2023-08-21T14:01:35;42.83;;;11.13;;
54005;SDS011;39919;38.160;-122.260;2023-08-21T14:04:04;32.63;;;11.55;;
54005;SDS011;39919;38.160;-122.260;2023-08-21T14:06:33;36.65;;;9.85;;
54005;SDS011;39919;38.160;-122.260;2023-08-21T14:09:02;31.27;;;9.60;;
54005;SDS011;39919;38.160;-122.260;2023-08-21T14:11:32;45.38;;;11.05;;
54005;SDS011;39919;38.160;-122.260;2023-08-21T14:14:01;32.72;;;10.80;;
54005;SDS011;39919;38.160;-122.260;2023-08-21T14:16:30;38.42;;;10.68;;
54005;SDS011;39919;38.160;-122.260;2023-08-21T14:19:01;33.80;;;11.63;;
54005;SDS011;39919;38.160;-122.260;2023-08-21T14:21:33;33.63;;;10.32;;
54005;SDS011;39919;38.160;-122.260;2023-08-21T14:24:08;43.33;;;12.77;;
54005;SDS011;39919;38.160;-122.260;2023-08-21T14:26:37;35.22;;;11.18;;
54005;SDS011;39919;38.160;-122.260;2023-08-21T14:29:06;31.60;;;9.93;;